Time;durP1;ratioP1;P1;durP2;ratioP2;P2;SDS_P1;SDS_P2;PMS_P1;PMS_P2;Temp;Humidity;BMP_temperature;BMP_pressure;BME280_temperature;BME280_humidity;BME280_pressure;Samples;Min_cycle;Max_cycle;Signal;HPM_P1;HPM_P2
2021/11/22 00:02:22;;;;;;;317.42;172.63;;;;;;;4.76;66.08;94782.94;4891549;29;20039;-81
2021/11/22 00:04:48;;;;;;;337.65;176.93;;;;;;;4.70;65.43;94782.91;4890746;29;20044;-81
2021/11/22 00:07:15;;;;;;;278.77;147.65;;;;;;;4.73;67.30;94796.22;4905972;29;20493;-81
2021/11/22 00:09:41;;;;;;;322.48;168.85;;;;;;;4.71;66.22;94790.44;4924333;29;20039;-81
2021/11/22 00:12:07;;;;;;;273.55;147.02;;;;;;;4.67;67.32;94794.41;4907110;29;20040;-81
2021/11/22 00:14:33;;;;;;;262.58;137.32;;;;;;;4.73;66.55;94793.63;4907990;29;20036;-81
2021/11/22 00:16:59;;;;;;;239.63;125.57;;;;;;;4.75;67.38;94796.81;4923595;29;20420;-81
2021/11/22 00:19:24;;;;;;;204.82;110.63;;;;;;;4.66;68.58;94787.66;4922259;29;20032;-81
2021/11/22 00:21:50;;;;;;;221.80;111.60;;;;;;;4.71;68.06;94790.44;4905559;29;20040;-81
2021/11/22 00:24:15;;;;;;;296.77;149.75;;;;;;;4.73;66.50;94795.41;4891159;29;20028;-81
2021/11/22 00:26:41;;;;;;;297.55;153.02;;;;;;;4.73;65.20;94790.28;4906506;29;20115;-81
2021/11/22 00:29:15;;;;;;;198.45;104.03;;;;;;;4.76;67.64;94802.75;4889012;29;20044;-81
2021/11/22 00:31:53;;;;;;;323.80;156.02;;;;;;;4.70;66.36;94799.16;4922744;29;20091;-81
2021/11/22 00:34:19;;;;;;;214.43;109.85;;;;;;;4.69;67.37;94792.41;4922788;29;20036;-81
2021/11/22 00:36:45;;;;;;;223.65;111.28;;;;;;;4.72;67.63;94796.41;4910479;29;20513;-81
2021/11/22 00:39:10;;;;;;;299.20;150.20;;;;;;;4.74;66.15;94800.38;4896284;29;20039;-82
2021/11/22 00:41:36;;;;;;;304.63;145.15;;;;;;;4.69;65.37;94807.88;4912860;29;20040;-81
2021/11/22 00:44:01;;;;;;;259.27;124.95;;;;;;;4.68;66.38;94795.19;4895886;29;20112;-81
2021/11/22 00:46:26;;;;;;;172.52;88.07;;;;;;;4.67;67.76;94793.63;4910552;29;20032;-80
2021/11/22 00:48:52;;;;;;;197.77;97.20;;;;;;;4.75;66.63;94801.97;4913095;29;20036;-81
2021/11/22 00:51:18;;;;;;;241.95;112.43;;;;;;;4.61;64.98;94795.19;4912968;29;20028;-81
2021/11/22 00:53:43;;;;;;;186.30;94.95;;;;;;;4.62;65.83;94798.56;4911875;29;20039;-81
2021/11/22 00:56:09;;;;;;;183.23;93.65;;;;;;;4.58;66.07;94803.31;4912811;29;20046;-82
2021/11/22 00:58:35;;;;;;;166.63;85.07;;;;;;;4.61;67.57;94796.97;4897518;29;20053;-81
2021/11/22 01:01:00;;;;;;;199.02;99.50;;;;;;;4.53;65.37;94803.09;4911873;29;20516;-81
2021/11/22 01:03:26;;;;;;;186.38;94.85;;;;;;;4.48;65.71;94801.09;4912296;29;20043;-82
2021/11/22 01:05:51;;;;;;;169.70;85.82;;;;;;;4.52;66.00;94794.56;4894050;29;20036;-82
2021/11/22 01:08:17;;;;;;;154.90;82.40;;;;;;;4.57;65.34;94788.84;4892470;29;20033;-82
2021/11/22 01:10:42;;;;;;;162.93;87.63;;;;;;;4.53;65.90;94803.09;4913603;29;20028;-81
2021/11/22 01:13:09;;;;;;;163.63;83.35;;;;;;;4.38;65.62;94799.88;4908291;29;20037;-81
2021/11/22 01:15:34;;;;;;;153.80;79.72;;;;;;;4.38;65.59;94794.72;4909984;29;20481;-81
2021/11/22 01:18:00;;;;;;;135.80;73.93;;;;;;;4.27;66.12;94795.31;4892318;29;20040;-81
2021/11/22 01:20:29;;;;;;;146.20;75.22;;;;;;;4.33;65.66;94791.94;4892935;29;20051;-81
2021/11/22 01:23:00;;;;;;;135.02;74.13;;;;;;;4.35;66.08;94793.34;4909085;29;20028;-81
2021/11/22 01:25:26;;;;;;;136.70;73.05;;;;;;;4.32;65.86;94787.78;4912103;29;20027;-80
2021/11/22 01:27:52;;;;;;;152.25;84.80;;;;;;;4.27;65.86;94787.56;4910030;29;20036;-82
2021/11/22 01:30:17;;;;;;;154.23;81.35;;;;;;;4.17;65.08;94788.72;4910732;29;20048;-81
2021/11/22 01:32:44;;;;;;;152.70;81.47;;;;;;;4.13;65.39;94800.38;4910656;29;20493;-81
2021/11/22 01:35:09;;;;;;;144.35;81.28;;;;;;;4.13;65.69;94802.97;4925378;29;20064;-80
2021/11/22 01:37:35;;;;;;;150.35;78.97;;;;;;;4.04;66.27;94793.81;4905627;29;20060;-81
2021/11/22 01:40:00;;;;;;;157.60;84.68;;;;;;;4.10;66.86;94803.34;4908464;29;20036;-80
2021/11/22 01:42:26;;;;;;;160.00;81.85;;;;;;;4.21;68.66;94807.13;4906136;29;20068;-81
2021/11/22 01:44:52;;;;;;;149.63;81.63;;;;;;;4.31;68.84;94804.22;4904667;29;20052;-82
2021/11/22 01:47:17;;;;;;;142.77;75.80;;;;;;;4.33;68.33;94797.09;4894718;29;20683;-82
2021/11/22 01:49:43;;;;;;;146.18;80.30;;;;;;;4.34;68.07;94798.69;4911791;29;20033;-81
2021/11/22 01:52:10;;;;;;;149.18;81.38;;;;;;;4.32;68.82;94795.50;4911094;29;20033;-81
2021/11/22 01:54:36;;;;;;;146.60;81.57;;;;;;;4.34;68.26;94788.38;4894745;29;20090;-81
2021/11/22 01:57:01;;;;;;;132.48;75.68;;;;;;;4.28;67.17;94795.09;4910879;29;20496;-81
2021/11/22 01:59:39;;;;;;;131.30;72.20;;;;;;;4.27;66.17;94798.66;4892984;29;20040;-81
2021/11/22 02:02:05;;;;;;;134.88;73.57;;;;;;;4.25;65.92;94794.69;4891489;29;20511;-81
2021/11/22 02:04:30;;;;;;;128.65;71.75;;;;;;;4.25;65.95;94792.13;4909636;29;20028;-82
2021/11/22 02:06:56;;;;;;;137.73;74.47;;;;;;;4.19;65.89;94791.88;4892950;29;20036;-82
2021/11/22 02:09:21;;;;;;;143.85;77.65;;;;;;;4.15;66.08;94777.81;5684257;23;20052;-81
2021/11/22 02:11:47;;;;;;;168.00;79.07;;;;;;;4.11;66.38;94781.00;4929701;29;20039;-81
2021/11/22 02:16:48;;;;;;;161.75;79.93;;;;;;;4.08;65.63;94782.16;4923737;23;20505;-81
2021/11/22 02:19:14;;;;;;;150.52;73.32;;;;;;;4.02;65.33;94788.06;4898690;29;20040;-81
2021/11/22 02:21:40;;;;;;;131.85;67.07;;;;;;;4.05;65.80;94785.09;4867312;29;20056;-81
2021/11/22 02:24:05;;;;;;;142.50;73.10;;;;;;;3.97;65.71;94785.28;4867887;29;20103;-82
2021/11/22 02:26:31;;;;;;;165.05;85.63;;;;;;;3.94;64.85;94784.88;4883820;29;20541;-82
2021/11/22 02:28:57;;;;;;;174.80;87.38;;;;;;;3.99;65.62;94775.59;4882595;29;20044;-82
2021/11/22 02:31:22;;;;;;;171.75;91.03;;;;;;;3.94;66.65;94772.00;4900278;29;20044;-81
2021/11/22 02:34:08;;;;;;;175.27;91.68;;;;;;;3.98;67.34;94770.63;4866938;29;20037;-82
2021/11/22 02:36:33;;;;;;;180.00;96.10;;;;;;;3.92;65.66;94774.78;4900404;29;20041;-81
2021/11/22 02:38:59;;;;;;;166.10;85.78;;;;;;;3.95;66.78;94774.41;4882620;29;20043;-81
2021/11/22 02:41:24;;;;;;;141.00;75.82;;;;;;;3.91;66.03;94778.34;4868327;29;20505;-82
2021/11/22 02:43:50;;;;;;;120.40;65.28;;;;;;;3.79;65.37;94785.00;4866994;29;20041;-82
2021/11/22 02:46:15;;;;;;;112.32;66.57;;;;;;;3.80;65.16;94776.31;4866942;29;20147;-81
2021/11/22 02:48:44;;;;;;;140.90;73.63;;;;;;;3.74;66.01;94777.88;4883144;29;20040;-81
2021/11/22 02:51:10;;;;;;;139.30;74.18;;;;;;;3.73;66.32;94786.53;4867173;29;20115;-81
2021/11/22 02:53:35;;;;;;;124.13;69.93;;;;;;;3.65;66.03;94778.19;4899877;29;20032;-82
2021/11/22 02:56:03;;;;;;;137.77;75.72;;;;;;;3.70;66.16;94780.97;4884191;29;20040;-82
2021/11/22 02:58:30;;;;;;;145.20;78.93;;;;;;;3.64;66.15;94771.47;4866963;29;20055;-83
2021/11/22 03:00:55;;;;;;;154.43;77.32;;;;;;;3.72;66.00;94771.28;4867498;29;20100;-82
2021/11/22 03:03:28;;;;;;;149.48;75.93;;;;;;;3.71;66.39;94770.50;4899122;29;21026;-82
2021/11/22 03:06:08;;;;;;;153.02;80.60;;;;;;;3.66;66.86;94772.06;4880718;29;20037;-81
2021/11/22 03:08:34;;;;;;;139.55;78.38;;;;;;;3.68;66.68;94768.31;4898241;29;20580;-81
2021/11/22 03:11:00;;;;;;;134.35;73.55;;;;;;;3.60;66.38;94771.84;4884754;29;20041;-82
2021/11/22 03:13:26;;;;;;;143.23;74.88;;;;;;;3.67;67.16;94776.22;4873461;29;20033;-81
2021/11/22 03:15:51;;;;;;;140.63;76.13;;;;;;;3.68;67.06;94772.66;4885214;29;20044;-81
2021/11/22 03:18:16;;;;;;;138.00;73.88;;;;;;;3.68;66.37;94772.66;4883710;29;20050;-82
2021/11/22 03:20:42;;;;;;;156.48;81.78;;;;;;;3.65;65.64;94773.06;4889446;29;20036;-81
2021/11/22 03:23:07;;;;;;;159.07;84.22;;;;;;;3.59;66.19;94775.41;4899939;29;20029;-81
2021/11/22 03:25:33;;;;;;;155.20;85.55;;;;;;;3.63;66.05;94780.16;4899383;29;20036;-81
2021/11/22 03:27:59;;;;;;;150.73;82.95;;;;;;;3.68;66.04;94788.88;4896987;29;20042;-81
2021/11/22 03:30:25;;;;;;;164.13;86.50;;;;;;;3.59;66.31;94780.56;4884547;29;20068;-81
2021/11/22 03:32:50;;;;;;;142.18;76.80;;;;;;;3.65;66.04;94788.47;4926628;23;20072;-81
2021/11/22 03:35:16;;;;;;;123.68;68.45;;;;;;;3.69;66.88;94787.09;4908477;29;20063;-81
2021/11/22 03:37:42;;;;;;;130.30;67.63;;;;;;;3.61;67.65;94783.72;4892277;29;20040;-81
2021/11/22 03:40:09;;;;;;;128.73;70.05;;;;;;;3.65;66.02;94789.28;4888377;29;20030;-81
2021/11/22 03:42:39;;;;;;;127.45;71.10;;;;;;;3.61;66.51;94783.72;4902647;29;20040;-82
2021/11/22 03:45:06;;;;;;;149.07;78.68;;;;;;;3.59;66.44;94795.97;4907813;29;20032;-82
2021/11/22 03:47:32;;;;;;;163.55;85.07;;;;;;;3.60;66.12;94795.00;4883917;29;20036;-82
2021/11/22 03:49:57;;;;;;;194.38;98.82;;;;;;;3.55;66.10;94788.81;4868947;29;20060;-82
2021/11/22 03:52:23;;;;;;;199.60;101.07;;;;;;;3.55;65.75;94791.38;4890027;29;20103;-81
2021/11/22 03:54:48;;;;;;;193.65;99.97;;;;;;;3.55;66.27;94796.53;4910334;29;20484;-81
2021/11/22 03:57:14;;;;;;;196.38;102.30;;;;;;;3.53;66.14;94790.78;4884631;29;20096;-80
2021/11/22 03:59:39;;;;;;;216.15;116.78;;;;;;;3.53;66.35;94796.72;4909991;29;20036;-82
2021/11/22 04:02:05;;;;;;;249.23;126.70;;;;;;;3.55;66.43;94799.09;4894007;29;20044;-81
2021/11/22 04:04:30;;;;;;;206.65;109.20;;;;;;;3.57;66.49;94797.91;4895347;29;20416;-81
2021/11/22 04:06:56;;;;;;;216.25;110.05;;;;;;;3.57;66.48;94802.25;4894729;29;20040;-81
2021/11/22 04:09:21;;;;;;;214.10;108.72;;;;;;;3.57;66.24;94808.19;4892276;29;20042;-81
2021/11/22 04:11:47;;;;;;;200.85;108.22;;;;;;;3.56;66.53;94821.25;4894603;29;20036;-80
2021/11/22 04:14:12;;;;;;;217.27;109.90;;;;;;;3.55;66.33;94805.03;4907522;29;20480;-81
2021/11/22 04:16:38;;;;;;;223.25;106.80;;;;;;;3.59;66.46;94808.84;4886935;29;20032;-81
2021/11/22 04:19:03;;;;;;;240.77;121.32;;;;;;;3.60;66.86;94802.69;4909672;29;20047;-80
2021/11/22 04:21:29;;;;;;;218.38;115.85;;;;;;;3.57;66.21;94803.06;4871595;29;20039;-81
2021/11/22 04:23:55;;;;;;;189.95;102.63;;;;;;;3.53;65.89;94809.56;4880486;29;20047;-80
2021/11/22 04:26:21;;;;;;;180.25;99.38;;;;;;;3.58;65.84;94806.44;4878792;29;20046;-81
2021/11/22 04:28:46;;;;;;;187.82;93.90;;;;;;;3.49;66.43;94810.13;4878898;29;20048;-82
2021/11/22 04:31:12;;;;;;;163.02;88.00;;;;;;;3.52;66.00;94810.56;4894012;29;20036;-81
2021/11/22 04:33:38;;;;;;;156.20;85.95;;;;;;;3.55;66.19;94812.75;4893037;29;20150;-81
2021/11/22 04:36:05;;;;;;;192.13;97.47;;;;;;;3.51;66.15;94818.44;4895510;29;20468;-80
2021/11/22 04:38:31;;;;;;;230.30;109.07;;;;;;;3.48;66.25;94819.63;4891604;29;20033;-82
2021/11/22 04:40:59;;;;;;;195.23;103.47;;;;;;;3.55;66.61;94809.38;4867050;29;20048;-83
2021/11/22 04:43:25;;;;;;;206.07;105.47;;;;;;;3.66;66.31;94810.63;4898754;29;20051;-82
2021/11/22 04:45:50;;;;;;;194.60;97.97;;;;;;;3.71;66.32;94813.44;4868300;29;20024;-81
2021/11/22 04:48:16;;;;;;;190.23;96.13;;;;;;;3.74;66.27;94824.16;4875974;29;20037;-82
2021/11/22 04:50:41;;;;;;;175.02;97.50;;;;;;;3.78;66.29;94822.00;4907891;29;20161;-83
2021/11/22 04:53:07;;;;;;;217.00;118.63;;;;;;;3.81;65.43;94829.31;4869757;29;20044;-83
2021/11/22 04:55:34;;;;;;;222.50;118.75;;;;;;;3.78;65.65;94830.50;4870314;29;20096;-82
2021/11/22 04:58:00;;;;;;;209.10;112.40;;;;;;;3.74;65.63;94839.59;4892328;29;20051;-83
2021/11/22 05:00:26;;;;;;;208.93;112.60;;;;;;;3.81;66.04;94835.25;4910180;29;20036;-83
2021/11/22 05:02:51;;;;;;;189.43;107.25;;;;;;;3.72;65.94;94833.00;4884067;29;20397;-83
2021/11/22 05:05:17;;;;;;;184.85;106.18;;;;;;;3.70;66.05;94843.50;4884769;29;20036;-83
2021/11/22 05:07:43;;;;;;;190.45;102.07;;;;;;;3.73;66.24;94847.47;4884089;29;20225;-82
2021/11/22 05:10:08;;;;;;;201.85;108.40;;;;;;;3.72;66.54;94838.16;4899204;29;20044;-83
2021/11/22 05:12:34;;;;;;;226.82;124.10;;;;;;;3.75;65.76;94835.25;4859521;29;20043;-82
2021/11/22 05:14:59;;;;;;;229.30;129.20;;;;;;;3.82;65.57;94843.78;4876589;29;20534;-82
2021/11/22 05:17:25;;;;;;;224.82;124.82;;;;;;;3.83;66.10;94832.50;4889075;29;20040;-82
2021/11/22 05:19:50;;;;;;;228.15;128.45;;;;;;;3.85;66.37;94833.91;4875314;29;20071;-81
2021/11/22 05:22:19;;;;;;;192.95;111.65;;;;;;;3.83;66.88;94832.50;4891916;29;20039;-82
2021/11/22 05:24:49;;;;;;;170.48;91.22;;;;;;;3.90;67.87;94839.28;4869858;29;20056;-82
2021/11/22 05:27:27;;;;;;;164.10;84.78;;;;;;;3.99;66.95;94832.19;4890687;29;20043;-82
2021/11/22 05:29:53;;;;;;;165.88;90.93;;;;;;;4.03;67.29;94830.81;4878785;29;20115;-82
2021/11/22 05:32:18;;;;;;;187.15;97.85;;;;;;;4.07;67.50;94834.63;4878643;29;20029;-82
2021/11/22 05:34:45;;;;;;;230.57;123.68;;;;;;;4.08;67.16;94837.97;4869052;29;21019;-82
2021/11/22 05:37:10;;;;;;;280.58;144.48;;;;;;;4.18;65.57;94846.94;4877309;29;20020;-82
2021/11/22 05:39:37;;;;;;;288.85;156.38;;;;;;;4.13;65.55;94841.56;4884174;29;20394;-82
2021/11/22 05:42:03;;;;;;;311.10;159.68;;;;;;;4.18;65.50;94846.94;4885442;29;20044;-82
2021/11/22 05:44:31;;;;;;;316.70;161.10;;;;;;;4.24;65.55;94844.59;4875180;29;20155;-82
2021/11/22 05:46:57;;;;;;;317.95;166.93;;;;;;;4.26;64.85;94843.41;4914148;29;20032;-83
2021/11/22 05:49:22;;;;;;;312.15;180.48;;;;;;;4.32;65.09;94852.13;4891930;29;20044;-83
2021/11/22 05:51:48;;;;;;;287.05;174.30;;;;;;;4.46;64.71;94864.06;4891791;29;20036;-83
2021/11/22 05:54:14;;;;;;;291.02;181.00;;;;;;;4.52;64.39;94858.16;4885103;29;20040;-83
2021/11/22 05:56:39;;;;;;;262.75;151.60;;;;;;;4.56;65.28;94859.38;4876468;29;20039;-83
2021/11/22 05:59:05;;;;;;;256.17;142.50;;;;;;;4.65;65.39;94865.91;4868531;29;20033;-83
2021/11/22 06:01:30;;;;;;;204.55;113.45;;;;;;;4.74;65.37;94857.03;4886484;29;20035;-83
2021/11/22 06:03:56;;;;;;;178.02;96.65;;;;;;;4.93;65.09;94865.00;4888048;29;20038;-82
2021/11/22 06:06:22;;;;;;;222.50;124.10;;;;;;;5.08;64.98;94863.84;4886825;29;20069;-82
2021/11/22 06:08:47;;;;;;;214.48;121.32;;;;;;;5.32;65.14;94870.22;4894776;29;20040;-83
2021/11/22 06:11:13;;;;;;;243.38;142.10;;;;;;;5.58;63.82;94863.47;4893374;29;20583;-83
2021/11/22 06:13:38;;;;;;;254.40;145.10;;;;;;;5.82;63.57;94859.47;4884573;29;20418;-83
2021/11/22 06:16:04;;;;;;;200.75;111.15;;;;;;;6.06;62.58;94860.66;4892404;29;20527;-82
2021/11/22 06:18:29;;;;;;;259.15;138.90;;;;;;;6.21;61.48;94872.34;4900631;29;20488;-81
2021/11/22 06:20:57;;;;;;;274.17;143.30;;;;;;;6.37;61.28;94873.69;4892557;29;20564;-83
2021/11/22 06:23:23;;;;;;;229.45;132.40;;;;;;;6.61;60.42;94880.75;4892041;29;20029;-83
2021/11/22 06:25:50;;;;;;;253.02;126.50;;;;;;;6.84;60.17;94876.88;4885405;29;20037;-85
2021/11/22 06:28:16;;;;;;;206.00;121.15;;;;;;;7.23;59.68;94884.41;4876943;29;20044;-82
2021/11/22 06:30:41;;;;;;;218.63;119.47;;;;;;;7.36;58.03;94873.19;4885369;29;20535;-83
2021/11/22 06:33:07;;;;;;;189.40;102.30;;;;;;;7.28;57.50;94878.59;4894249;29;20044;-82
2021/11/22 06:35:34;;;;;;;147.40;81.38;;;;;;;7.21;57.70;94872.69;4892863;29;20027;-81
2021/11/22 06:38:01;;;;;;;139.63;75.57;;;;;;;7.09;58.07;94871.75;4894719;29;20040;-81
2021/11/22 06:40:27;;;;;;;155.02;76.35;;;;;;;6.94;57.61;94879.78;4890034;29;20066;-82
2021/11/22 06:42:52;;;;;;;133.18;73.72;;;;;;;6.89;58.21;94877.84;4881551;29;20417;-82
2021/11/22 06:45:18;;;;;;;132.93;71.43;;;;;;;6.96;57.51;94882.97;4904937;29;20029;-80
2021/11/22 06:47:44;;;;;;;138.30;72.30;;;;;;;7.00;57.17;94873.81;4893611;29;20036;-80
2021/11/22 06:50:09;;;;;;;160.15;75.43;;;;;;;7.04;56.45;94874.19;4967523;23;20044;-80
2021/11/22 06:52:35;;;;;;;162.13;82.80;;;;;;;6.96;56.24;94875.22;4908760;29;20043;-80
2021/11/22 06:55:01;;;;;;;155.55;72.28;;;;;;;7.02;55.46;94874.41;4907375;29;20390;-78
2021/11/22 06:57:33;;;;;;;130.93;68.95;;;;;;;7.17;55.21;94885.25;4893143;29;20039;-79
2021/11/22 06:59:58;;;;;;;143.20;74.13;;;;;;;7.31;55.04;94885.13;4908863;29;20598;-81
2021/11/22 07:02:24;;;;;;;134.82;71.40;;;;;;;7.51;54.79;94891.00;4877722;29;20048;-79
2021/11/22 07:04:50;;;;;;;148.18;73.38;;;;;;;7.68;55.19;94886.88;4866662;29;20366;-79
2021/11/22 07:07:16;;;;;;;135.05;74.10;;;;;;;7.89;54.95;94882.31;4883283;29;20068;-79
2021/11/22 07:09:42;;;;;;;137.63;74.78;;;;;;;8.04;55.17;94882.78;4874174;29;20060;-81
2021/11/22 07:12:08;;;;;;;132.88;74.25;;;;;;;8.19;52.58;94882.44;4861319;29;20028;-79
2021/11/22 07:14:35;;;;;;;137.23;72.00;;;;;;;8.30;52.57;94885.09;4897345;29;20024;-78
2021/11/22 07:17:01;;;;;;;138.95;74.32;;;;;;;8.41;52.07;94892.16;4908735;29;20044;-78
2021/11/22 07:19:26;;;;;;;136.82;71.78;;;;;;;8.52;51.45;94887.28;4904510;29;20036;-79
2021/11/22 07:21:53;;;;;;;137.90;75.70;;;;;;;8.58;51.37;94882.00;4891313;29;20428;-79
2021/11/22 07:24:19;;;;;;;148.63;74.97;;;;;;;8.69;51.37;94888.28;4868118;29;20040;-80
2021/11/22 07:26:47;;;;;;;135.95;73.55;;;;;;;8.82;51.28;94882.94;4883540;29;20048;-81
2021/11/22 07:29:15;;;;;;;141.90;73.78;;;;;;;8.95;51.03;94887.19;4861352;29;20531;-81
2021/11/22 07:31:41;;;;;;;143.45;76.40;;;;;;;9.07;51.53;94879.41;4882434;29;20064;-79
2021/11/22 07:34:07;;;;;;;149.65;76.80;;;;;;;9.20;51.93;94879.25;4907999;29;20127;-78
2021/11/22 07:36:32;;;;;;;145.50;75.78;;;;;;;9.34;50.83;94878.03;4907017;29;20036;-79
2021/11/22 07:38:58;;;;;;;140.93;73.80;;;;;;;9.49;51.05;94872.44;4881913;29;20036;-79
2021/11/22 07:41:23;;;;;;;142.13;74.97;;;;;;;9.66;50.25;94873.38;4867883;29;20028;-78
2021/11/22 07:43:49;;;;;;;137.98;75.20;;;;;;;9.80;50.23;94873.94;4907808;29;20143;-79
2021/11/22 07:46:14;;;;;;;129.68;74.32;;;;;;;9.96;50.32;94872.50;4881842;29;20040;-79
2021/11/22 07:48:40;;;;;;;132.20;76.03;;;;;;;10.08;49.49;94876.63;4875281;29;20036;-78
2021/11/22 07:51:13;;;;;;;131.18;73.60;;;;;;;10.18;48.67;94868.28;4891810;29;20051;-78
2021/11/22 07:53:39;;;;;;;143.07;72.95;;;;;;;10.21;47.88;94863.44;4892376;29;20095;-79
2021/11/22 07:56:05;;;;;;;134.38;75.38;;;;;;;10.26;48.68;94869.78;4906851;29;20032;-77
2021/11/22 07:58:30;;;;;;;143.30;74.75;;;;;;;10.36;48.11;94862.19;4906344;29;20045;-79
2021/11/22 08:00:56;;;;;;;136.68;73.07;;;;;;;10.46;47.41;94867.59;4873498;29;20045;-78
2021/11/22 08:03:21;;;;;;;139.57;75.25;;;;;;;10.52;47.82;94861.47;4864974;29;20509;-78
2021/11/22 08:05:49;;;;;;;126.45;73.50;;;;;;;10.58;47.86;94855.38;4909521;29;20036;-80
2021/11/22 08:08:16;;;;;;;132.43;72.13;;;;;;;10.64;47.57;94859.66;4880982;29;20040;-79
2021/11/22 08:10:46;;;;;;;141.90;72.50;;;;;;;10.76;47.13;94863.00;4889197;29;20036;-80
2021/11/22 08:13:11;;;;;;;145.43;74.00;;;;;;;10.83;47.39;94855.84;4874287;29;20493;-77
2021/11/22 08:15:37;;;;;;;132.95;70.38;;;;;;;10.90;47.34;94862.72;4888969;29;20040;-78
2021/11/22 08:18:04;;;;;;;131.05;71.97;;;;;;;10.99;47.07;94856.13;4889714;29;20512;-76
2021/11/22 08:20:30;;;;;;;127.88;72.47;;;;;;;11.08;47.02;94868.56;4881527;29;20087;-76
2021/11/22 08:22:55;;;;;;;131.18;73.05;;;;;;;11.19;46.90;94869.50;4880645;29;20461;-78
2021/11/22 08:25:23;;;;;;;145.15;70.10;;;;;;;11.31;46.29;94875.44;4873081;29;20032;-77
2021/11/22 08:27:52;;;;;;;135.65;70.68;;;;;;;11.39;45.79;94872.47;4879765;29;20107;-77
2021/11/22 08:30:17;;;;;;;133.85;72.18;;;;;;;11.46;46.02;94866.31;4872256;29;20036;-78
2021/11/22 08:32:44;;;;;;;125.60;68.35;;;;;;;11.53;46.05;94872.94;4890778;29;20032;-80
2021/11/22 08:35:10;;;;;;;123.57;69.55;;;;;;;11.64;45.38;94871.31;4883162;29;20040;-81
2021/11/22 08:37:36;;;;;;;132.25;68.32;;;;;;;11.70;46.11;94865.13;4889029;29;20032;-80
2021/11/22 08:40:05;;;;;;;118.03;68.05;;;;;;;11.79;46.19;94861.16;4881705;29;20044;-80
2021/11/22 08:42:30;;;;;;;107.68;63.28;;;;;;;11.85;44.65;94860.19;4907782;29;20041;-78
2021/11/22 08:44:57;;;;;;;111.50;60.67;;;;;;;11.79;44.91;94849.94;4905550;29;20035;-79
2021/11/22 08:47:23;;;;;;;109.70;60.30;;;;;;;11.75;45.55;94854.03;4881306;29;20051;-78
2021/11/22 08:49:49;;;;;;;110.18;60.00;;;;;;;11.71;45.45;94859.72;4892894;29;20032;-77
2021/11/22 08:52:15;;;;;;;105.30;58.17;;;;;;;11.70;45.75;94852.91;4890462;29;20089;-78
2021/11/22 08:54:40;;;;;;;90.60;53.15;;;;;;;11.77;45.67;94852.75;4879713;29;20064;-77
2021/11/22 08:57:08;;;;;;;106.53;60.15;;;;;;;11.77;45.91;94852.75;4912091;29;20036;-79
2021/11/22 08:59:33;;;;;;;104.40;59.78;;;;;;;11.82;45.71;94850.25;4914791;29;20032;-80
2021/11/22 09:01:59;;;;;;;128.20;61.15;;;;;;;11.87;45.50;94847.72;4908690;29;20361;-80
2021/11/22 09:04:25;;;;;;;96.25;58.20;;;;;;;11.92;45.62;94853.00;4883962;29;20036;-78
2021/11/22 09:06:51;;;;;;;112.75;63.70;;;;;;;11.94;45.03;94850.97;4892370;29;20531;-79
2021/11/22 09:09:18;;;;;;;149.32;73.70;;;;;;;11.67;45.21;94855.19;4876459;29;20028;-78
2021/11/22 09:11:45;;;;;;;125.03;74.10;;;;;;;11.64;45.84;94858.28;4892577;29;20032;-78
2021/11/22 09:14:11;;;;;;;140.07;73.00;;;;;;;11.66;45.92;94851.00;4909194;29;20040;-79
2021/11/22 09:16:37;;;;;;;114.63;65.05;;;;;;;11.70;45.88;94847.69;4885394;29;20043;-79
2021/11/22 09:19:02;;;;;;;105.32;60.72;;;;;;;11.72;46.08;94844.88;4910196;29;20418;-79
2021/11/22 09:21:28;;;;;;;116.28;65.45;;;;;;;11.79;45.79;94845.53;4892437;29;20059;-78
2021/11/22 09:23:53;;;;;;;128.65;71.57;;;;;;;11.86;45.45;94840.91;4894006;29;20036;-78
2021/11/22 09:26:19;;;;;;;122.30;73.63;;;;;;;11.89;45.67;94835.25;4892727;29;20035;-78
2021/11/22 09:28:45;;;;;;;144.00;73.80;;;;;;;11.93;45.48;94838.97;4892168;29;20052;-78
2021/11/22 09:31:11;;;;;;;132.77;74.47;;;;;;;11.98;45.41;94839.03;4908449;29;20043;-78
2021/11/22 09:33:36;;;;;;;118.38;67.32;;;;;;;12.08;45.63;94835.00;4877942;29;20032;-79
2021/11/22 09:36:02;;;;;;;110.30;64.38;;;;;;;12.13;45.88;94840.25;4884381;29;20159;-78
2021/11/22 09:38:28;;;;;;;117.03;66.47;;;;;;;12.18;45.29;94833.28;4891492;29;20127;-78
2021/11/22 09:40:54;;;;;;;119.35;64.38;;;;;;;12.25;45.33;94833.13;4878724;29;20043;-79
2021/11/22 09:43:20;;;;;;;116.18;64.10;;;;;;;12.35;45.45;94830.63;4876480;29;20040;-78
2021/11/22 09:45:46;;;;;;;110.32;64.35;;;;;;;12.40;45.37;94820.28;4908473;29;20222;-78
2021/11/22 09:48:11;;;;;;;121.78;62.97;;;;;;;12.51;45.39;94821.97;4884646;29;20074;-79
2021/11/22 09:50:37;;;;;;;103.65;61.13;;;;;;;12.59;45.45;94815.56;4876171;29;20064;-79
2021/11/22 09:53:03;;;;;;;111.07;60.08;;;;;;;12.61;45.32;94819.50;4893262;29;20028;-79
2021/11/22 09:55:31;;;;;;;107.88;57.80;;;;;;;12.68;45.25;94813.28;4891152;29;20032;-79
2021/11/22 09:57:58;;;;;;;108.30;58.75;;;;;;;12.74;45.14;94815.72;4910115;29;20067;-79
2021/11/22 10:00:26;;;;;;;101.78;59.67;;;;;;;12.87;45.07;94812.72;4893685;29;20109;-85
2021/11/22 10:02:53;;;;;;;104.05;58.92;;;;;;;12.96;44.85;94797.41;4864717;29;20060;-79
2021/11/22 10:05:31;;;;;;;111.72;59.20;;;;;;;13.01;44.64;94802.66;4893286;29;20064;-81
2021/11/22 10:08:06;;;;;;;103.97;58.63;;;;;;;13.02;44.89;94796.44;4880718;29;20066;-80
2021/11/22 10:10:36;;;;;;;104.15;59.83;;;;;;;13.00;44.66;94797.69;4916164;29;20055;-82
2021/11/22 10:13:20;;;;;;;118.85;62.30;;;;;;;12.97;44.62;94787.75;4901700;29;20037;-82
2021/11/22 10:15:45;;;;;;;101.68;53.95;;;;;;;12.96;44.69;94792.19;4884408;29;20036;-83
2021/11/22 10:18:16;;;;;;;97.88;53.85;;;;;;;12.98;45.39;94784.88;4883842;29;20041;-82
2021/11/22 10:20:42;;;;;;;109.13;53.45;;;;;;;13.03;44.88;94782.34;4914615;29;20174;-81
2021/11/22 10:23:09;;;;;;;96.13;47.80;;;;;;;13.08;45.18;94779.78;4899464;29;20071;-83
2021/11/22 10:25:41;;;;;;;92.68;51.28;;;;;;;13.17;45.27;94777.47;4903387;29;20054;-83
2021/11/22 10:28:11;;;;;;;91.00;48.30;;;;;;;13.21;45.02;94776.00;4901577;29;20731;-81
2021/11/22 10:30:43;;;;;;;80.60;45.33;;;;;;;13.20;45.20;94771.81;4895783;29;20043;-82
2021/11/22 10:33:10;;;;;;;76.77;45.80;;;;;;;13.19;45.09;94771.03;4873765;29;20056;-81
2021/11/22 10:35:36;;;;;;;76.05;42.22;;;;;;;13.17;45.55;94772.25;4890210;29;20067;-82
2021/11/22 10:38:16;;;;;;;75.30;41.45;;;;;;;13.14;45.60;94773.56;4914020;29;20029;-80
2021/11/22 10:40:44;;;;;;;69.53;39.60;;;;;;;13.09;45.48;94773.53;4881262;29;20068;-81
2021/11/22 10:43:10;;;;;;;67.43;41.30;;;;;;;13.06;45.74;94768.78;4896468;29;20040;-82
2021/11/22 10:45:42;;;;;;;87.07;41.90;;;;;;;13.02;45.75;94770.34;4883882;29;20047;-79
2021/11/22 10:50:50;;;;;;;94.45;46.63;;;;;;;12.99;45.81;94765.59;4899317;29;20047;-78
2021/11/22 10:53:31;;;;;;;84.53;45.47;;;;;;;12.98;45.85;94761.41;4890978;29;20048;-79
2021/11/22 10:55:57;;;;;;;73.55;43.00;;;;;;;12.97;46.12;94757.22;4897443;29;20047;-78
2021/11/22 10:58:34;;;;;;;72.78;40.97;;;;;;;13.02;46.22;94759.91;4912632;29;20028;-79
2021/11/22 11:01:13;;;;;;;80.03;44.58;;;;;;;13.05;46.27;94764.63;4898929;29;20040;-79
2021/11/22 11:03:39;;;;;;;82.13;43.60;;;;;;;13.13;46.27;94756.31;4890413;29;20620;-81
2021/11/22 11:06:04;;;;;;;77.07;43.47;;;;;;;13.23;45.80;94762.69;4892742;29;20039;-82
2021/11/22 11:08:30;;;;;;;79.57;43.50;;;;;;;13.27;45.47;94755.94;4914091;29;20061;-82
2021/11/22 11:11:12;;;;;;;78.85;41.28;;;;;;;13.32;45.87;94758.56;4881692;29;20081;-82
2021/11/22 11:16:24;;;;;;;73.93;39.20;;;;;;;13.25;46.07;94755.41;4981404;23;20056;-81
2021/11/22 11:19:19;;;;;;;72.88;40.78;;;;;;;13.30;45.99;94750.22;4896638;29;20576;-81
2021/11/22 11:21:49;;;;;;;90.00;38.15;;;;;;;13.32;46.30;94751.53;4884896;29;20055;-81